createdAt,value
2019-04-22T00:03:12.979Z,14.23
2019-04-22T00:07:41.979Z,10.77
2019-04-22T00:11:54.672Z,10.73
2019-04-22T00:15:54.112Z,15.77
2019-04-22T00:20:04.922Z,9.83
2019-04-22T00:25:03.447Z,9.73
2019-04-22T00:29:34.498Z,11.73
2019-04-22T00:33:19.179Z,8.87
2019-04-22T00:37:23.574Z,10.07
2019-04-22T00:41:34.157Z,12.73
2019-04-22T00:45:38.540Z,14.27
2019-04-22T00:53:48.089Z,19.20
2019-04-22T00:57:56.322Z,14.33
2019-04-22T01:02:03.594Z,11.93
2019-04-22T01:06:10.344Z,13.97
2019-04-22T01:16:09.430Z,12.80
2019-04-22T01:20:45.461Z,13.60
2019-04-22T01:24:12.111Z,10.87
2019-04-22T01:28:10.842Z,16.27
2019-04-22T01:32:05.821Z,14.27
2019-04-22T01:36:24.624Z,12.93
2019-04-22T01:40:45.175Z,12.70
2019-04-22T01:44:47.122Z,14.43
2019-04-22T01:48:57.802Z,14.77
2019-04-22T01:53:06.385Z,17.00
2019-04-22T01:57:06.550Z,17.43
2019-04-22T02:01:13.685Z,14.17
2019-04-22T02:05:21.652Z,14.40
2019-04-22T02:09:24.088Z,14.47
2019-04-22T02:13:30.824Z,16.13
2019-04-22T02:17:41.537Z,17.27
2019-04-22T02:21:42.497Z,14.10
2019-04-22T02:25:59.238Z,14.63
2019-04-22T02:29:51.922Z,16.37
2019-04-22T02:34:13.847Z,15.90
2019-04-22T02:38:19.472Z,16.80
2019-04-22T02:42:14.221Z,18.63
2019-04-22T02:46:45.148Z,15.87
2019-04-22T02:50:28.581Z,16.73
2019-04-22T02:54:49.429Z,16.97
2019-04-22T03:15:07.870Z,16.73
2019-04-22T03:19:26.448Z,17.60
2019-04-22T03:23:36.071Z,18.30
2019-04-22T03:27:27.674Z,15.23
2019-04-22T03:36:05.776Z,15.90
2019-04-22T03:47:01.859Z,18.17
2019-04-22T03:51:12.019Z,17.23
2019-04-22T03:59:28.502Z,17.77
2019-04-22T04:03:19.128Z,17.80
2019-04-22T04:11:43.264Z,14.43
2019-04-22T04:15:32.926Z,17.33
2019-04-22T04:28:24.276Z,15.80
2019-04-22T04:32:20.719Z,16.37
2019-04-22T04:44:28.846Z,19.90
2019-04-22T04:48:36.975Z,14.33
2019-04-22T05:09:11.812Z,14.10
2019-04-22T05:17:15.763Z,13.70
2019-04-22T05:29:43.217Z,14.17
2019-04-22T05:33:34.935Z,16.43
2019-04-22T05:37:40.306Z,16.20
2019-04-22T05:41:43.107Z,17.07
2019-04-22T05:45:54.189Z,16.67
2019-04-22T05:54:01.329Z,15.67
2019-04-22T05:58:02.498Z,15.50
2019-04-22T06:02:23.429Z,13.80
2019-04-22T06:06:20.702Z,15.30
2019-04-22T06:10:29.335Z,14.43
2019-04-22T06:14:24.812Z,15.50
2019-04-22T06:18:34.816Z,14.33
2019-04-22T06:35:09.747Z,17.80
2019-04-22T06:39:18.448Z,13.23
2019-04-22T06:43:15.789Z,13.03
2019-04-22T06:47:38.012Z,11.37
2019-04-22T06:51:30.950Z,10.83
2019-04-22T06:55:35.630Z,10.77
2019-04-22T06:59:38.033Z,18.33
2019-04-22T07:03:58.500Z,15.37
2019-04-22T07:07:53.364Z,9.70
2019-04-22T07:12:02.237Z,17.60
2019-04-22T07:16:05.212Z,11.23
2019-04-22T07:20:10.706Z,9.90
2019-04-22T07:24:40.675Z,12.27
2019-04-22T07:28:20.263Z,9.63
2019-04-22T07:32:54.959Z,13.40
2019-04-22T07:40:43.854Z,10.65
2019-04-22T07:44:51.016Z,9.85
2019-04-22T07:49:10.497Z,8.68
2019-04-22T07:52:58.930Z,10.10
2019-04-22T07:57:15.355Z,8.70
2019-04-22T08:01:14.051Z,8.73
2019-04-22T08:05:22.454Z,9.77
2019-04-22T08:09:34.024Z,8.73
2019-04-22T08:21:46.289Z,9.23
2019-04-22T08:25:47.463Z,10.70
2019-04-22T08:34:08.171Z,8.13
2019-04-22T08:38:11.535Z,8.85
2019-04-22T08:42:29.436Z,8.70
2019-04-22T08:46:27.131Z,10.97
2019-04-22T08:50:26.755Z,11.23
2019-04-22T08:54:36.146Z,7.80
2019-04-22T08:58:48.760Z,10.07
2019-04-22T09:02:53.740Z,7.33
2019-04-22T09:07:10.482Z,7.97
2019-04-22T09:11:04.635Z,10.80
2019-04-22T09:15:04.568Z,8.47
2019-04-22T09:19:12.646Z,8.07
2019-04-22T09:23:28.423Z,8.20
2019-04-22T09:31:29.242Z,11.77
2019-04-22T09:35:49.878Z,8.00
2019-04-22T09:39:51.263Z,9.00
2019-04-22T09:43:53.621Z,7.73
2019-04-22T09:48:00.930Z,9.17
2019-04-22T09:52:08.434Z,8.53
2019-04-22T09:56:12.218Z,6.57
2019-04-22T10:00:13.995Z,6.27
2019-04-22T10:04:18.193Z,6.10
2019-04-22T10:08:31.685Z,10.53
2019-04-22T10:12:36.673Z,6.73
2019-04-22T10:16:44.978Z,11.63
2019-04-22T10:20:45.883Z,7.13
2019-04-22T10:24:53.615Z,11.87
2019-04-22T10:29:17.025Z,5.80
2019-04-22T10:33:03.051Z,5.23
2019-04-22T10:36:52.728Z,5.43
2019-04-22T10:40:52.681Z,7.27
2019-04-22T10:44:57.344Z,7.10
2019-04-22T10:49:02.027Z,9.97
2019-04-22T10:53:07.735Z,8.03
2019-04-22T10:57:12.272Z,7.50
2019-04-22T11:01:17.887Z,8.23
2019-04-22T11:05:22.492Z,7.30
2019-04-22T11:09:28.941Z,7.43
2019-04-22T11:13:35.654Z,7.93
2019-04-22T11:17:41.701Z,6.50
2019-04-22T11:21:57.696Z,6.10
2019-04-22T11:25:54.053Z,8.70
2019-04-22T11:29:59.474Z,8.10
2019-04-22T11:34:04.211Z,6.37
2019-04-22T11:38:08.900Z,4.67
2019-04-22T11:42:14.070Z,7.03
2019-04-22T11:46:18.878Z,8.40
2019-04-22T11:50:24.345Z,12.17
2019-04-22T11:54:28.915Z,5.47
2019-04-22T11:58:34.862Z,7.53
2019-04-22T12:02:40.931Z,3.97
2019-04-22T12:06:46.155Z,4.27
2019-04-22T12:10:55.399Z,3.67
2019-04-22T12:14:58.437Z,4.33
2019-04-22T12:19:03.384Z,6.23
2019-04-22T12:23:09.435Z,6.97
2019-04-22T12:27:16.962Z,7.70
2019-04-22T12:31:21.705Z,6.13
2019-04-22T12:35:26.456Z,5.97
2019-04-22T12:39:31.594Z,3.80
2019-04-22T12:43:37.326Z,5.63
2019-04-22T12:47:44.036Z,4.30
2019-04-22T12:51:49.257Z,3.70
2019-04-22T12:55:55.401Z,6.07
2019-04-22T13:00:01.744Z,6.10
2019-04-22T13:04:09.624Z,5.27
2019-04-22T13:08:13.750Z,5.70
2019-04-22T13:12:19.346Z,7.17
2019-04-22T13:16:24.980Z,7.37
2019-04-22T13:20:30.463Z,6.00
2019-04-22T13:24:36.165Z,4.50
2019-04-22T13:28:41.014Z,4.83
2019-04-22T13:32:46.964Z,6.47
2019-04-22T13:36:52.910Z,7.53
2019-04-22T13:41:07.237Z,6.30
2019-04-22T13:45:04.140Z,4.13
2019-04-22T13:49:46.233Z,6.63
2019-04-22T13:57:41.380Z,7.67
2019-04-22T14:01:36.664Z,3.93
2019-04-22T14:05:42.641Z,3.00
2019-04-22T14:09:48.630Z,6.23
2019-04-22T14:13:53.364Z,4.93
2019-04-22T14:17:58.817Z,4.30
2019-04-22T14:22:03.996Z,5.80
2019-04-22T14:26:09.162Z,4.03
2019-04-22T14:30:16.747Z,3.77
2019-04-22T14:34:21.421Z,4.80
2019-04-22T14:38:25.992Z,6.07
2019-04-22T14:42:51.531Z,8.03
2019-04-22T14:47:03.473Z,6.20
2019-04-22T14:51:05.937Z,5.03
2019-04-22T14:55:00.874Z,4.33
2019-04-22T14:58:56.615Z,5.60
2019-04-22T15:03:01.598Z,5.23
2019-04-22T15:07:08.570Z,4.23
2019-04-22T15:11:13.177Z,3.50
2019-04-22T15:15:43.397Z,2.57
2019-04-22T15:19:55.966Z,5.53
2019-04-22T15:24:20.597Z,3.00
2019-04-22T15:28:25.257Z,2.70
2019-04-22T15:32:29.913Z,6.93
2019-04-22T15:36:36.010Z,3.57
2019-04-22T15:40:40.770Z,6.90
2019-04-22T15:44:46.215Z,4.23
2019-04-22T15:48:51.850Z,2.80
2019-04-22T15:52:58.840Z,8.20
2019-04-22T15:57:02.675Z,6.30
2019-04-22T16:01:15.121Z,8.20
2019-04-22T16:05:14.815Z,5.33
2019-04-22T16:09:20.551Z,2.33
2019-04-22T16:13:28.766Z,4.30
2019-04-22T16:17:32.668Z,3.20
2019-04-22T16:21:42.422Z,2.70
2019-04-22T16:26:15.447Z,3.43
2019-04-22T16:30:21.522Z,6.30
2019-04-22T16:34:27.223Z,5.47
2019-04-22T16:38:37.466Z,4.97
2019-04-22T16:42:49.947Z,2.17
2019-04-22T16:46:49.982Z,1.87
2019-04-22T16:50:55.008Z,3.70
2019-04-22T16:55:01.078Z,2.30
2019-04-22T16:59:06.687Z,3.10
2019-04-22T17:03:22.816Z,3.87
2019-04-22T17:07:27.452Z,7.63
2019-04-22T17:11:32.024Z,3.67
2019-04-22T17:15:37.567Z,2.03
2019-04-22T17:19:42.242Z,6.97
2019-04-22T17:23:47.608Z,3.10
2019-04-22T17:27:52.392Z,3.17
2019-04-22T17:32:03.699Z,2.80
2019-04-22T17:36:03.393Z,3.27
2019-04-22T17:40:30.326Z,3.87
2019-04-22T17:44:58.844Z,3.00
2019-04-22T17:49:13.941Z,2.70
2019-04-22T17:53:23.007Z,1.97
2019-04-22T17:57:21.709Z,3.33
2019-04-22T18:01:29.748Z,1.87
2019-04-22T18:05:22.029Z,3.50
2019-04-22T18:10:14.074Z,4.83
2019-04-22T18:13:51.542Z,2.20
2019-04-22T18:18:03.662Z,5.17
2019-04-22T18:21:57.303Z,5.50
2019-04-22T18:26:08.153Z,5.87
2019-04-22T18:30:11.397Z,3.83
2019-04-22T18:34:19.124Z,4.93
2019-04-22T18:38:44.407Z,2.77
2019-04-22T18:42:26.865Z,3.90
2019-04-22T18:46:37.130Z,3.40
2019-04-22T18:50:56.243Z,2.10
2019-04-22T18:55:12.906Z,5.73
2019-04-22T18:59:10.449Z,3.30
2019-04-22T19:03:14.183Z,5.30
2019-04-22T19:07:42.031Z,4.60
2019-04-22T19:11:46.218Z,3.93
2019-04-22T19:15:53.893Z,1.97
2019-04-22T19:20:02.715Z,1.87
2019-04-22T19:24:01.510Z,8.00
2019-04-22T19:28:18.961Z,2.53
2019-04-22T19:32:13.006Z,6.33
2019-04-22T19:36:22.726Z,1.90
2019-04-22T19:40:42.033Z,4.80
2019-04-22T19:44:40.842Z,6.97
2019-04-22T19:48:44.962Z,4.37
2019-04-22T19:52:53.120Z,2.93
2019-04-22T19:56:45.620Z,11.07
2019-04-22T20:01:15.075Z,4.43
2019-04-22T20:05:50.939Z,6.57
2019-04-22T20:09:55.512Z,4.43
2019-04-22T20:14:03.215Z,1.63
2019-04-22T20:18:22.608Z,4.70
2019-04-22T20:22:14.322Z,4.10
2019-04-22T20:26:12.479Z,6.73
2019-04-22T20:30:28.247Z,6.97
2019-04-22T20:34:32.164Z,8.20
2019-04-22T20:38:35.435Z,6.00
2019-04-22T20:42:48.375Z,3.13
2019-04-22T20:46:49.021Z,8.03
2019-04-22T20:50:59.292Z,4.70
2019-04-22T20:54:58.860Z,10.53
2019-04-22T20:59:08.606Z,2.80
2019-04-22T21:03:06.246Z,6.83
2019-04-22T21:07:15.078Z,9.70
2019-04-22T21:11:24.837Z,2.77
2019-04-22T21:15:36.901Z,9.70
2019-04-22T21:19:46.490Z,6.20
2019-04-22T21:23:39.438Z,5.90
2019-04-22T21:27:58.229Z,4.60
2019-04-22T21:32:01.057Z,6.63
2019-04-22T21:36:14.966Z,4.33
2019-04-22T21:40:05.479Z,6.17
2019-04-22T21:44:14.328Z,8.57
2019-04-22T21:48:31.408Z,3.80
2019-04-22T21:52:27.981Z,6.83
2019-04-22T21:57:05.807Z,8.10
2019-04-22T22:01:21.895Z,6.63
2019-04-22T22:05:12.520Z,7.03
2019-04-22T22:09:25.518Z,5.17
2019-04-22T22:13:31.942Z,9.63
2019-04-22T22:17:31.006Z,4.23
2019-04-22T22:21:47.840Z,13.40
2019-04-22T22:25:43.689Z,10.50
2019-04-22T22:34:04.079Z,7.70
2019-04-22T22:38:05.274Z,10.80
2019-04-22T22:41:52.029Z,7.70
2019-04-22T22:46:11.934Z,7.10
2019-04-22T22:50:20.127Z,7.30
2019-04-22T22:54:31.759Z,8.20
2019-04-22T22:58:42.625Z,5.90
2019-04-22T23:02:48.596Z,6.40
2019-04-22T23:06:53.243Z,4.83
2019-04-22T23:11:03.555Z,9.17
2019-04-22T23:14:58.988Z,6.83
2019-04-22T23:19:01.993Z,11.87
2019-04-22T23:23:25.799Z,9.67
2019-04-22T23:27:40.419Z,10.80
2019-04-22T23:31:45.429Z,8.10
2019-04-22T23:36:00.312Z,7.90
2019-04-22T23:40:24.385Z,8.07
2019-04-22T23:44:19.548Z,9.07
2019-04-22T23:48:20.472Z,9.30
2019-04-22T23:52:35.697Z,7.60
2019-04-22T23:56:33.592Z,9.13
